sensor_id;sensor_type;location;lat;lon;timestamp;pressure;altitude;pressure_sealevel;temperature;humidity
59877;BME280;45749;51.140;17.184;2023-01-26T00:00:44;100859.72;;;2.18;100.00
59877;BME280;45749;51.140;17.184;2023-01-26T00:03:10;100851.91;;;2.18;100.00
59877;BME280;45749;51.140;17.184;2023-01-26T00:05:36;100857.03;;;2.20;100.00
59877;BME280;45749;51.140;17.184;2023-01-26T00:08:02;100850.22;;;2.16;100.00
59877;BME280;45749;51.140;17.184;2023-01-26T00:10:27;100852.69;;;2.20;100.00
59877;BME280;45749;51.140;17.184;2023-01-26T00:12:52;100850.28;;;2.14;100.00
59877;BME280;45749;51.140;17.184;2023-01-26T00:15:18;100840.72;;;2.15;100.00
59877;BME280;45749;51.140;17.184;2023-01-26T00:17:43;100839.88;;;2.14;100.00
59877;BME280;45749;51.140;17.184;2023-01-26T00:20:09;100851.97;;;2.15;100.00
59877;BME280;45749;51.140;17.184;2023-01-26T00:22:34;100847.78;;;2.11;100.00
59877;BME280;45749;51.140;17.184;2023-01-26T00:25:00;100843.50;;;2.08;100.00
59877;BME280;45749;51.140;17.184;2023-01-26T00:27:25;100845.94;;;2.13;100.00
59877;BME280;45749;51.140;17.184;2023-01-26T00:29:51;100845.06;;;2.14;100.00
59877;BME280;45749;51.140;17.184;2023-01-26T00:32:16;100837.47;;;2.06;100.00
59877;BME280;45749;51.140;17.184;2023-01-26T00:34:42;100838.47;;;2.02;100.00
59877;BME280;45749;51.140;17.184;2023-01-26T00:37:07;100841.91;;;2.03;100.00
59877;BME280;45749;51.140;17.184;2023-01-26T00:39:32;100836.78;;;2.01;100.00
59877;BME280;45749;51.140;17.184;2023-01-26T00:41:58;100838.31;;;2.07;100.00
59877;BME280;45749;51.140;17.184;2023-01-26T00:44:39;100839.97;;;2.11;100.00
59877;BME280;45749;51.140;17.184;2023-01-26T00:47:05;100832.94;;;2.13;100.00
59877;BME280;45749;51.140;17.184;2023-01-26T00:49:32;100825.31;;;2.07;100.00
59877;BME280;45749;51.140;17.184;2023-01-26T00:51:57;100834.78;;;2.09;100.00
59877;BME280;45749;51.140;17.184;2023-01-26T00:54:23;100840.91;;;2.07;100.00
59877;BME280;45749;51.140;17.184;2023-01-26T00:56:48;100842.56;;;2.11;100.00
59877;BME280;45749;51.140;17.184;2023-01-26T00:59:14;100835.72;;;2.07;100.00
59877;BME280;45749;51.140;17.184;2023-01-26T01:01:39;100825.38;;;2.05;100.00
59877;BME280;45749;51.140;17.184;2023-01-26T01:04:04;100826.13;;;2.09;100.00
59877;BME280;45749;51.140;17.184;2023-01-26T01:06:30;100838.19;;;2.11;100.00
59877;BME280;45749;51.140;17.184;2023-01-26T01:08:55;100834.75;;;2.11;100.00
59877;BME280;45749;51.140;17.184;2023-01-26T01:11:21;100836.63;;;2.06;100.00
59877;BME280;45749;51.140;17.184;2023-01-26T01:13:46;100833.94;;;2.09;100.00
59877;BME280;45749;51.140;17.184;2023-01-26T01:16:13;100836.53;;;2.09;100.00
59877;BME280;45749;51.140;17.184;2023-01-26T01:18:39;100828.72;;;2.09;100.00
59877;BME280;45749;51.140;17.184;2023-01-26T01:21:09;100822.84;;;2.02;100.00
59877;BME280;45749;51.140;17.184;2023-01-26T01:23:35;100825.53;;;1.99;100.00
59877;BME280;45749;51.140;17.184;2023-01-26T01:26:01;100819.66;;;1.93;100.00
59877;BME280;45749;51.140;17.184;2023-01-26T01:28:27;100825.72;;;1.93;100.00
59877;BME280;45749;51.140;17.184;2023-01-26T01:30:52;100813.03;;;1.81;100.00
59877;BME280;45749;51.140;17.184;2023-01-26T01:33:18;100824.09;;;1.89;100.00
59877;BME280;45749;51.140;17.184;2023-01-26T01:35:43;100819.91;;;1.83;100.00
59877;BME280;45749;51.140;17.184;2023-01-26T01:38:09;100825.97;;;1.84;100.00
59877;BME280;45749;51.140;17.184;2023-01-26T01:40:34;100819.91;;;1.83;100.00
59877;BME280;45749;51.140;17.184;2023-01-26T01:43:00;100823.38;;;1.84;100.00
59877;BME280;45749;51.140;17.184;2023-01-26T01:47:52;100814.03;;;1.77;100.00
59877;BME280;45749;51.140;17.184;2023-01-26T01:50:21;100808.75;;;1.80;100.00
59877;BME280;45749;51.140;17.184;2023-01-26T01:52:46;100801.94;;;1.76;100.00
59877;BME280;45749;51.140;17.184;2023-01-26T01:55:14;100801.03;;;1.77;100.00
59877;BME280;45749;51.140;17.184;2023-01-26T01:57:44;100801.78;;;1.80;100.00
59877;BME280;45749;51.140;17.184;2023-01-26T02:02:45;100796.66;;;1.79;100.00
59877;BME280;45749;51.140;17.184;2023-01-26T02:05:39;100796.66;;;1.77;100.00
59877;BME280;45749;51.140;17.184;2023-01-26T02:08:07;100782.88;;;1.75;100.00
59877;BME280;45749;51.140;17.184;2023-01-26T02:10:35;100779.41;;;1.75;100.00
59877;BME280;45749;51.140;17.184;2023-01-26T02:13:01;100778.53;;;1.74;100.00
59877;BME280;45749;51.140;17.184;2023-01-26T02:15:29;100775.91;;;1.76;100.00
59877;BME280;45749;51.140;17.184;2023-01-26T02:17:54;100763.97;;;1.69;100.00
59877;BME280;45749;51.140;17.184;2023-01-26T02:23:15;100773.31;;;1.76;100.00
59877;BME280;45749;51.140;17.184;2023-01-26T02:28:18;100756.97;;;1.71;100.00
59877;BME280;45749;51.140;17.184;2023-01-26T02:30:45;100756.94;;;1.72;100.00
59877;BME280;45749;51.140;17.184;2023-01-26T02:33:20;100758.59;;;1.75;100.00
59877;BME280;45749;51.140;17.184;2023-01-26T02:35:46;100753.53;;;1.70;100.00
59877;BME280;45749;51.140;17.184;2023-01-26T02:38:12;100749.25;;;1.68;100.00
59877;BME280;45749;51.140;17.184;2023-01-26T02:40:45;100745.78;;;1.67;100.00
59877;BME280;45749;51.140;17.184;2023-01-26T02:43:14;100752.81;;;1.65;100.00
59877;BME280;45749;51.140;17.184;2023-01-26T02:45:40;100745.88;;;1.64;100.00
59877;BME280;45749;51.140;17.184;2023-01-26T02:48:05;100738.09;;;1.64;100.00
59877;BME280;45749;51.140;17.184;2023-01-26T02:50:32;100732.00;;;1.65;100.00
59877;BME280;45749;51.140;17.184;2023-01-26T02:52:58;100732.84;;;1.66;100.00
59877;BME280;45749;51.140;17.184;2023-01-26T02:55:24;100732.03;;;1.63;100.00
59877;BME280;45749;51.140;17.184;2023-01-26T02:57:57;100728.53;;;1.64;100.00
59877;BME280;45749;51.140;17.184;2023-01-26T03:00:29;100726.88;;;1.62;100.00
59877;BME280;45749;51.140;17.184;2023-01-26T03:02:59;100726.97;;;1.59;100.00
59877;BME280;45749;51.140;17.184;2023-01-26T03:05:28;100718.31;;;1.58;100.00
59877;BME280;45749;51.140;17.184;2023-01-26T03:07:53;100712.38;;;1.55;100.00
59877;BME280;45749;51.140;17.184;2023-01-26T03:10:19;100713.16;;;1.57;100.00
59877;BME280;45749;51.140;17.184;2023-01-26T03:12:44;100720.88;;;1.60;100.00
59877;BME280;45749;51.140;17.184;2023-01-26T03:15:10;100704.44;;;1.58;100.00
59877;BME280;45749;51.140;17.184;2023-01-26T03:18:06;100704.34;;;1.61;100.00
59877;BME280;45749;51.140;17.184;2023-01-26T03:20:50;100699.88;;;1.66;100.00
59877;BME280;45749;51.140;17.184;2023-01-26T03:23:34;100698.09;;;1.68;100.00
59877;BME280;45749;51.140;17.184;2023-01-26T03:26:18;100698.88;;;1.70;100.00
59877;BME280;45749;51.140;17.184;2023-01-26T03:29:02;100687.97;;;1.59;100.00
59877;BME280;45749;51.140;17.184;2023-01-26T03:31:27;100694.00;;;1.59;100.00
59877;BME280;45749;51.140;17.184;2023-01-26T03:33:52;100688.91;;;1.56;100.00
59877;BME280;45749;51.140;17.184;2023-01-26T03:36:18;100693.19;;;1.57;100.00
59877;BME280;45749;51.140;17.184;2023-01-26T03:38:43;100678.53;;;1.55;100.00
59877;BME280;45749;51.140;17.184;2023-01-26T03:41:09;100681.94;;;1.57;100.00
59877;BME280;45749;51.140;17.184;2023-01-26T03:43:52;100665.72;;;1.49;100.00
59877;BME280;45749;51.140;17.184;2023-01-26T03:46:36;100679.34;;;1.57;100.00
59877;BME280;45749;51.140;17.184;2023-01-26T03:49:20;100673.94;;;1.63;100.00
59877;BME280;45749;51.140;17.184;2023-01-26T03:52:04;100663.63;;;1.60;100.00
59877;BME280;45749;51.140;17.184;2023-01-26T03:54:48;100666.16;;;1.63;100.00
59877;BME280;45749;51.140;17.184;2023-01-26T03:57:32;100670.31;;;1.69;100.00
59877;BME280;45749;51.140;17.184;2023-01-26T03:59:58;100650.63;;;1.60;100.00
59877;BME280;45749;51.140;17.184;2023-01-26T04:02:23;100648.09;;;1.58;100.00
59877;BME280;45749;51.140;17.184;2023-01-26T04:05:07;100666.06;;;1.66;100.00
59877;BME280;45749;51.140;17.184;2023-01-26T04:07:51;100668.47;;;1.72;100.00
59877;BME280;45749;51.140;17.184;2023-01-26T04:10:35;100665.88;;;1.72;100.00
59877;BME280;45749;51.140;17.184;2023-01-26T04:13:01;100672.75;;;1.75;100.00
59877;BME280;45749;51.140;17.184;2023-01-26T04:15:46;100652.38;;;1.59;100.00
59877;BME280;45749;51.140;17.184;2023-01-26T04:18:31;100650.13;;;1.49;99.45
59877;BME280;45749;51.140;17.184;2023-01-26T04:21:15;100645.94;;;1.43;99.58
59877;BME280;45749;51.140;17.184;2023-01-26T04:24:00;100663.03;;;1.52;100.00
59877;BME280;45749;51.140;17.184;2023-01-26T04:26:30;100659.69;;;1.47;100.00
59877;BME280;45749;51.140;17.184;2023-01-26T04:29:05;100657.91;;;1.49;100.00
59877;BME280;45749;51.140;17.184;2023-01-26T04:31:31;100663.91;;;1.51;100.00
59877;BME280;45749;51.140;17.184;2023-01-26T04:33:58;100652.84;;;1.44;100.00
59877;BME280;45749;51.140;17.184;2023-01-26T04:36:24;100663.91;;;1.51;100.00
59877;BME280;45749;51.140;17.184;2023-01-26T04:38:49;100657.00;;;1.50;100.00
59877;BME280;45749;51.140;17.184;2023-01-26T04:41:15;100654.41;;;1.50;99.85
59877;BME280;45749;51.140;17.184;2023-01-26T04:43:41;100650.22;;;1.44;99.37
59877;BME280;45749;51.140;17.184;2023-01-26T04:46:07;100642.59;;;1.39;99.73
59877;BME280;45749;51.140;17.184;2023-01-26T04:48:34;100644.25;;;1.42;99.86
59877;BME280;45749;51.140;17.184;2023-01-26T04:51:02;100638.06;;;1.45;99.84
59877;BME280;45749;51.140;17.184;2023-01-26T04:53:28;100623.56;;;1.37;99.75
59877;BME280;45749;51.140;17.184;2023-01-26T04:55:54;100625.06;;;1.45;100.00
59877;BME280;45749;51.140;17.184;2023-01-26T04:58:19;100631.84;;;1.50;100.00
59877;BME280;45749;51.140;17.184;2023-01-26T05:00:55;100630.91;;;1.53;100.00
59877;BME280;45749;51.140;17.184;2023-01-26T05:03:22;100634.38;;;1.53;100.00
59877;BME280;45749;51.140;17.184;2023-01-26T05:05:50;100626.53;;;1.55;100.00
59877;BME280;45749;51.140;17.184;2023-01-26T05:08:16;100626.41;;;1.58;99.85
59877;BME280;45749;51.140;17.184;2023-01-26T05:10:42;100610.78;;;1.58;99.49
59877;BME280;45749;51.140;17.184;2023-01-26T05:13:08;100614.28;;;1.58;99.94
59877;BME280;45749;51.140;17.184;2023-01-26T05:15:34;100613.41;;;1.58;99.45
59877;BME280;45749;51.140;17.184;2023-01-26T05:18:00;100629.81;;;1.60;99.14
59877;BME280;45749;51.140;17.184;2023-01-26T05:20:25;100621.34;;;1.53;99.03
59877;BME280;45749;51.140;17.184;2023-01-26T05:22:51;100619.69;;;1.51;98.85
59877;BME280;45749;51.140;17.184;2023-01-26T05:25:16;100623.28;;;1.47;99.17
59877;BME280;45749;51.140;17.184;2023-01-26T05:27:42;100619.00;;;1.46;99.10
59877;BME280;45749;51.140;17.184;2023-01-26T05:30:08;100615.47;;;1.48;99.24
59877;BME280;45749;51.140;17.184;2023-01-26T05:32:34;100617.25;;;1.46;99.02
59877;BME280;45749;51.140;17.184;2023-01-26T05:34:59;100603.47;;;1.43;99.11
59877;BME280;45749;51.140;17.184;2023-01-26T05:37:26;100618.94;;;1.47;99.24
59877;BME280;45749;51.140;17.184;2023-01-26T05:39:52;100628.47;;;1.48;99.39
59877;BME280;45749;51.140;17.184;2023-01-26T05:42:17;100618.06;;;1.48;99.16
59877;BME280;45749;51.140;17.184;2023-01-26T05:44:43;100618.94;;;1.47;99.02
59877;BME280;45749;51.140;17.184;2023-01-26T05:47:09;100626.66;;;1.50;98.90
59877;BME280;45749;51.140;17.184;2023-01-26T05:49:34;100623.09;;;1.53;99.18
59877;BME280;45749;51.140;17.184;2023-01-26T05:52:09;100611.97;;;1.48;99.04
59877;BME280;45749;51.140;17.184;2023-01-26T05:54:35;100619.69;;;1.51;98.77
59877;BME280;45749;51.140;17.184;2023-01-26T05:57:01;100623.19;;;1.50;98.83
59877;BME280;45749;51.140;17.184;2023-01-26T05:59:27;100609.38;;;1.48;98.87
59877;BME280;45749;51.140;17.184;2023-01-26T06:01:52;100615.34;;;1.51;99.19
59877;BME280;45749;51.140;17.184;2023-01-26T06:04:18;100606.00;;;1.46;99.09
59877;BME280;45749;51.140;17.184;2023-01-26T06:06:44;100611.94;;;1.49;98.61
59877;BME280;45749;51.140;17.184;2023-01-26T06:09:10;100610.28;;;1.47;98.84
59877;BME280;45749;51.140;17.184;2023-01-26T06:11:35;100600.88;;;1.43;98.86
59877;BME280;45749;51.140;17.184;2023-01-26T06:14:01;100606.84;;;1.46;98.72
59877;BME280;45749;51.140;17.184;2023-01-26T06:16:26;100602.56;;;1.44;98.49
59877;BME280;45749;51.140;17.184;2023-01-26T06:18:51;100599.28;;;1.38;98.27
59877;BME280;45749;51.140;17.184;2023-01-26T06:21:17;100596.03;;;1.30;98.40
59877;BME280;45749;51.140;17.184;2023-01-26T06:23:43;100598.72;;;1.29;98.43
59877;BME280;45749;51.140;17.184;2023-01-26T06:26:08;100597.03;;;1.26;98.52
59877;BME280;45749;51.140;17.184;2023-01-26T06:28:34;100595.38;;;1.24;98.36
59877;BME280;45749;51.140;17.184;2023-01-26T06:31:04;100598.13;;;1.19;98.53
59877;BME280;45749;51.140;17.184;2023-01-26T06:33:33;100606.72;;;1.21;98.72
59877;BME280;45749;51.140;17.184;2023-01-26T06:36:10;100606.94;;;1.13;98.43
59877;BME280;45749;51.140;17.184;2023-01-26T06:38:36;100609.41;;;1.18;98.81
59877;BME280;45749;51.140;17.184;2023-01-26T06:41:04;100617.97;;;1.22;98.94
59877;BME280;45749;51.140;17.184;2023-01-26T06:43:31;100609.41;;;1.18;98.68
59877;BME280;45749;51.140;17.184;2023-01-26T06:45:57;100610.38;;;1.15;98.24
59877;BME280;45749;51.140;17.184;2023-01-26T06:48:28;100608.69;;;1.13;98.45
59877;BME280;45749;51.140;17.184;2023-01-26T06:56:13;100617.59;;;1.04;98.62
59877;BME280;45749;51.140;17.184;2023-01-26T06:58:39;100619.34;;;1.04;98.55
59877;BME280;45749;51.140;17.184;2023-01-26T07:01:04;100605.50;;;1.03;98.76
59877;BME280;45749;51.140;17.184;2023-01-26T07:03:30;100614.06;;;1.07;99.06
59877;BME280;45749;51.140;17.184;2023-01-26T07:05:56;100608.88;;;1.07;98.96
59877;BME280;45749;51.140;17.184;2023-01-26T07:08:22;100619.13;;;1.11;98.79
59877;BME280;45749;51.140;17.184;2023-01-26T07:10:48;100609.59;;;1.12;99.00
59877;BME280;45749;51.140;17.184;2023-01-26T07:13:14;100607.00;;;1.12;98.95
59877;BME280;45749;51.140;17.184;2023-01-26T07:15:40;100620.88;;;1.11;98.93
59877;BME280;45749;51.140;17.184;2023-01-26T07:18:05;100620.03;;;1.10;98.71
59877;BME280;45749;51.140;17.184;2023-01-26T07:20:31;100607.19;;;1.06;98.83
59877;BME280;45749;51.140;17.184;2023-01-26T07:22:58;100617.44;;;1.10;98.62
59877;BME280;45749;51.140;17.184;2023-01-26T07:25:24;100615.69;;;1.11;98.60
59877;BME280;45749;51.140;17.184;2023-01-26T07:27:54;100617.53;;;1.07;98.54
59877;BME280;45749;51.140;17.184;2023-01-26T07:30:20;100612.47;;;1.03;98.55
59877;BME280;45749;51.140;17.184;2023-01-26T07:32:45;100602.19;;;0.98;98.38
59877;BME280;45749;51.140;17.184;2023-01-26T07:35:11;100613.34;;;1.02;98.31
59877;BME280;45749;51.140;17.184;2023-01-26T07:37:36;100612.56;;;1.00;98.33
59877;BME280;45749;51.140;17.184;2023-01-26T07:40:03;100605.63;;;0.99;98.52
59877;BME280;45749;51.140;17.184;2023-01-26T07:42:30;100598.75;;;0.98;98.44
59877;BME280;45749;51.140;17.184;2023-01-26T07:44:55;100600.44;;;0.99;98.29
59877;BME280;45749;51.140;17.184;2023-01-26T07:47:20;100588.41;;;0.96;98.35
59877;BME280;45749;51.140;17.184;2023-01-26T07:49:46;100592.63;;;0.99;98.63
59877;BME280;45749;51.140;17.184;2023-01-26T07:52:11;100600.56;;;0.94;98.38
59877;BME280;45749;51.140;17.184;2023-01-26T07:54:37;100607.44;;;0.97;98.37
59877;BME280;45749;51.140;17.184;2023-01-26T07:57:02;100598.88;;;0.93;98.32
59877;BME280;45749;51.140;17.184;2023-01-26T07:59:31;100604.94;;;0.93;98.32
59877;BME280;45749;51.140;17.184;2023-01-26T08:01:56;100595.56;;;0.88;98.56
59877;BME280;45749;51.140;17.184;2023-01-26T08:04:22;100588.59;;;0.88;98.59
59877;BME280;45749;51.140;17.184;2023-01-26T08:06:50;100599.75;;;0.92;98.25
59877;BME280;45749;51.140;17.184;2023-01-26T08:09:15;100605.06;;;0.89;98.21
59877;BME280;45749;51.140;17.184;2023-01-26T08:11:41;100600.72;;;0.89;98.29
59877;BME280;45749;51.140;17.184;2023-01-26T08:14:06;100600.84;;;0.85;98.26
59877;BME280;45749;51.140;17.184;2023-01-26T08:16:33;100604.25;;;0.87;98.51
59877;BME280;45749;51.140;17.184;2023-01-26T08:18:59;100610.38;;;0.84;98.22
59877;BME280;45749;51.140;17.184;2023-01-26T08:21:24;100617.16;;;0.90;98.66
59877;BME280;45749;51.140;17.184;2023-01-26T08:23:50;100610.13;;;0.93;98.83
59877;BME280;45749;51.140;17.184;2023-01-26T08:26:17;100608.34;;;0.96;98.54
59877;BME280;45749;51.140;17.184;2023-01-26T08:28:43;100601.47;;;0.93;98.76
59877;BME280;45749;51.140;17.184;2023-01-26T08:31:14;100612.59;;;0.98;98.63
59877;BME280;45749;51.140;17.184;2023-01-26T08:33:43;100607.53;;;0.93;98.19
59877;BME280;45749;51.140;17.184;2023-01-26T08:36:13;100608.19;;;1.00;98.59
59877;BME280;45749;51.140;17.184;2023-01-26T08:38:39;100612.50;;;1.01;98.58
59877;BME280;45749;51.140;17.184;2023-01-26T08:41:05;100608.88;;;1.07;98.65
59877;BME280;45749;51.140;17.184;2023-01-26T08:43:31;100608.72;;;1.11;99.16
59877;BME280;45749;51.140;17.184;2023-01-26T08:45:56;100607.72;;;1.17;99.18
59877;BME280;45749;51.140;17.184;2023-01-26T08:48:22;100613.72;;;1.19;98.64
59877;BME280;45749;51.140;17.184;2023-01-26T08:50:52;100605.19;;;1.14;98.84
59877;BME280;45749;51.140;17.184;2023-01-26T08:53:18;100605.78;;;1.24;98.68
59877;BME280;45749;51.140;17.184;2023-01-26T08:55:43;100616.00;;;1.30;98.78
59877;BME280;45749;51.140;17.184;2023-01-26T08:58:08;100619.50;;;1.29;98.81
59877;BME280;45749;51.140;17.184;2023-01-26T09:00:34;100612.59;;;1.28;98.64
59877;BME280;45749;51.140;17.184;2023-01-26T09:03:00;100618.50;;;1.33;98.67
59877;BME280;45749;51.140;17.184;2023-01-26T09:05:27;100616.75;;;1.33;98.85
59877;BME280;45749;51.140;17.184;2023-01-26T09:07:55;100612.47;;;1.32;98.73
59877;BME280;45749;51.140;17.184;2023-01-26T09:10:21;100620.13;;;1.37;98.77
59877;BME280;45749;51.140;17.184;2023-01-26T09:12:46;100621.03;;;1.36;98.48
59877;BME280;45749;51.140;17.184;2023-01-26T09:15:12;100616.66;;;1.36;98.40
59877;BME280;45749;51.140;17.184;2023-01-26T09:17:37;100613.25;;;1.34;98.15
59877;BME280;45749;51.140;17.184;2023-01-26T09:20:04;100607.22;;;1.34;97.67
59877;BME280;45749;51.140;17.184;2023-01-26T09:22:30;100609.09;;;1.29;98.08
59877;BME280;45749;51.140;17.184;2023-01-26T09:24:55;100609.97;;;1.29;98.02
59877;BME280;45749;51.140;17.184;2023-01-26T09:27:21;100611.66;;;1.30;98.15
59877;BME280;45749;51.140;17.184;2023-01-26T09:29:46;100608.13;;;1.33;98.08
59877;BME280;45749;51.140;17.184;2023-01-26T09:32:13;100605.53;;;1.31;97.66
59877;BME280;45749;51.140;17.184;2023-01-26T09:34:38;100599.50;;;1.31;97.89
59877;BME280;45749;51.140;17.184;2023-01-26T09:37:08;100601.31;;;1.29;97.58
59877;BME280;45749;51.140;17.184;2023-01-26T09:39:33;100603.84;;;1.30;98.15
59877;BME280;45749;51.140;17.184;2023-01-26T09:44:26;100601.09;;;1.35;97.86
59877;BME280;45749;51.140;17.184;2023-01-26T09:52:31;100588.00;;;1.38;97.94
59877;BME280;45749;51.140;17.184;2023-01-26T09:54:59;100588.06;;;1.36;96.91
59877;BME280;45749;51.140;17.184;2023-01-26T09:57:32;100587.25;;;1.34;96.13
59877;BME280;45749;51.140;17.184;2023-01-26T10:00:09;100584.72;;;1.33;97.22
59877;BME280;45749;51.140;17.184;2023-01-26T10:05:19;100584.53;;;1.39;97.48
59877;BME280;45749;51.140;17.184;2023-01-26T10:07:48;100580.13;;;1.41;97.35
59877;BME280;45749;51.140;17.184;2023-01-26T10:10:27;100573.19;;;1.42;97.41
59877;BME280;45749;51.140;17.184;2023-01-26T10:12:57;100574.78;;;1.46;97.32
59877;BME280;45749;51.140;17.184;2023-01-26T10:15:27;100570.53;;;1.43;96.86
59877;BME280;45749;51.140;17.184;2023-01-26T10:17:55;100575.72;;;1.43;96.80
59877;BME280;45749;51.140;17.184;2023-01-26T10:22:49;100566.16;;;1.44;97.05
59877;BME280;45749;51.140;17.184;2023-01-26T10:25:25;100569.59;;;1.46;97.04
59877;BME280;45749;51.140;17.184;2023-01-26T10:27:52;100568.59;;;1.50;97.38
59877;BME280;45749;51.140;17.184;2023-01-26T10:30:18;100564.97;;;1.54;97.43
59877;BME280;45749;51.140;17.184;2023-01-26T10:32:46;100565.78;;;1.56;97.75
59877;BME280;45749;51.140;17.184;2023-01-26T10:35:16;100566.53;;;1.59;97.07
59877;BME280;45749;51.140;17.184;2023-01-26T10:37:42;100569.84;;;1.64;97.32
59877;BME280;45749;51.140;17.184;2023-01-26T10:40:07;100563.84;;;1.62;97.18
59877;BME280;45749;51.140;17.184;2023-01-26T10:42:39;100561.91;;;1.69;97.04
59877;BME280;45749;51.140;17.184;2023-01-26T10:45:30;100563.56;;;1.72;96.93
59877;BME280;45749;51.140;17.184;2023-01-26T10:50:31;100573.06;;;1.73;96.71
59877;BME280;45749;51.140;17.184;2023-01-26T10:53:01;100565.41;;;1.68;95.41
59877;BME280;45749;51.140;17.184;2023-01-26T10:55:28;100559.41;;;1.66;95.71
59877;BME280;45749;51.140;17.184;2023-01-26T10:57:54;100563.78;;;1.64;95.20
59877;BME280;45749;51.140;17.184;2023-01-26T11:00:28;100566.38;;;1.64;95.59
59877;BME280;45749;51.140;17.184;2023-01-26T11:03:01;100556.03;;;1.62;96.22
59877;BME280;45749;51.140;17.184;2023-01-26T11:05:28;100567.00;;;1.72;96.54
59877;BME280;45749;51.140;17.184;2023-01-26T11:07:55;100563.41;;;1.76;96.24
59877;BME280;45749;51.140;17.184;2023-01-26T11:10:36;100553.84;;;1.77;96.18
59877;BME280;45749;51.140;17.184;2023-01-26T11:13:16;100546.84;;;1.79;95.99
59877;BME280;45749;51.140;17.184;2023-01-26T11:15:48;100553.75;;;1.80;96.06
59877;BME280;45749;51.140;17.184;2023-01-26T11:21:09;100534.94;;;1.72;94.33
59877;BME280;45749;51.140;17.184;2023-01-26T11:37:35;100522.06;;;1.67;95.51
59877;BME280;45749;51.140;17.184;2023-01-26T11:40:22;100521.97;;;1.70;94.76
59877;BME280;45749;51.140;17.184;2023-01-26T11:51:39;100513.97;;;1.76;94.62
59877;BME280;45749;51.140;17.184;2023-01-26T12:02:28;100497.25;;;1.83;95.30
59877;BME280;45749;51.140;17.184;2023-01-26T12:04:57;100498.72;;;1.91;95.35
59877;BME280;45749;51.140;17.184;2023-01-26T12:07:53;100498.69;;;1.92;95.68
59877;BME280;45749;51.140;17.184;2023-01-26T12:10:26;100491.91;;;1.88;94.88
59877;BME280;45749;51.140;17.184;2023-01-26T12:13:03;100487.56;;;1.87;94.94
59877;BME280;45749;51.140;17.184;2023-01-26T12:15:36;100485.03;;;1.85;95.07
59877;BME280;45749;51.140;17.184;2023-01-26T12:18:35;100489.28;;;1.88;95.07
59877;BME280;45749;51.140;17.184;2023-01-26T12:21:09;100475.56;;;1.83;95.17
59877;BME280;45749;51.140;17.184;2023-01-26T12:23:56;100480.63;;;1.87;95.15
59877;BME280;45749;51.140;17.184;2023-01-26T12:26:24;100484.03;;;1.90;94.98
59877;BME280;45749;51.140;17.184;2023-01-26T12:34:26;100478.16;;;1.84;94.81
59877;BME280;45749;51.140;17.184;2023-01-26T12:39:57;100475.78;;;1.77;94.81
59877;BME280;45749;51.140;17.184;2023-01-26T12:42:47;100483.78;;;1.71;94.63
59877;BME280;45749;51.140;17.184;2023-01-26T12:45:20;100479.59;;;1.67;94.58
59877;BME280;45749;51.140;17.184;2023-01-26T12:47:53;100473.72;;;1.61;94.48
59877;BME280;45749;51.140;17.184;2023-01-26T12:50:37;100473.06;;;1.55;94.01
59877;BME280;45749;51.140;17.184;2023-01-26T12:53:29;100474.16;;;1.48;94.22
59877;BME280;45749;51.140;17.184;2023-01-26T12:58:43;100478.59;;;1.44;94.24
59877;BME280;45749;51.140;17.184;2023-01-26T13:01:13;100471.78;;;1.42;94.03
59877;BME280;45749;51.140;17.184;2023-01-26T13:03:43;100474.47;;;1.38;94.07
59877;BME280;45749;51.140;17.184;2023-01-26T13:08:45;100470.22;;;1.36;94.04
59877;BME280;45749;51.140;17.184;2023-01-26T13:11:44;100472.84;;;1.34;94.38
59877;BME280;45749;51.140;17.184;2023-01-26T13:14:33;100465.13;;;1.31;94.07
59877;BME280;45749;51.140;17.184;2023-01-26T13:25:32;100462.34;;;1.37;94.95
59877;BME280;45749;51.140;17.184;2023-01-26T13:28:02;100465.84;;;1.36;94.46
59877;BME280;45749;51.140;17.184;2023-01-26T13:30:44;100466.78;;;1.35;94.58
59877;BME280;45749;51.140;17.184;2023-01-26T13:33:22;100458.97;;;1.35;94.75
59877;BME280;45749;51.140;17.184;2023-01-26T13:35:50;100469.38;;;1.35;94.72
59877;BME280;45749;51.140;17.184;2023-01-26T13:38:25;100460.69;;;1.35;94.43
59877;BME280;45749;51.140;17.184;2023-01-26T13:40:52;100466.88;;;1.32;94.55
59877;BME280;45749;51.140;17.184;2023-01-26T13:46:34;100467.41;;;1.42;94.93
59877;BME280;45749;51.140;17.184;2023-01-26T13:49:01;100467.41;;;1.42;94.71
59877;BME280;45749;51.140;17.184;2023-01-26T13:51:32;100461.25;;;1.45;95.05
59877;BME280;45749;51.140;17.184;2023-01-26T13:56:34;100458.69;;;1.43;94.48
59877;BME280;45749;51.140;17.184;2023-01-26T13:59:12;100454.31;;;1.45;94.92
59877;BME280;45749;51.140;17.184;2023-01-26T14:01:42;100450.97;;;1.42;94.61
59877;BME280;45749;51.140;17.184;2023-01-26T14:04:16;100444.97;;;1.39;94.00
59877;BME280;45749;51.140;17.184;2023-01-26T14:07:02;100452.75;;;1.39;94.76
59877;BME280;45749;51.140;17.184;2023-01-26T14:09:31;100448.38;;;1.42;94.78
59877;BME280;45749;51.140;17.184;2023-01-26T14:12:00;100444.00;;;1.42;94.45
59877;BME280;45749;51.140;17.184;2023-01-26T14:14:32;100438.91;;;1.39;94.27
59877;BME280;45749;51.140;17.184;2023-01-26T14:16:59;100442.47;;;1.36;94.62
59877;BME280;45749;51.140;17.184;2023-01-26T14:19:26;100437.19;;;1.38;94.11
59877;BME280;45749;51.140;17.184;2023-01-26T14:21:58;100434.56;;;1.39;94.31
59877;BME280;45749;51.140;17.184;2023-01-26T14:24:36;100431.13;;;1.39;94.41
59877;BME280;45749;51.140;17.184;2023-01-26T14:30:20;100448.56;;;1.35;94.24
59877;BME280;45749;51.140;17.184;2023-01-26T14:32:47;100452.03;;;1.34;94.23